Time;durP1;ratioP1;P1;durP2;ratioP2;P2;SDS_P1;SDS_P2;PMS_P1;PMS_P2;Temp;Humidity;BMP_temperature;BMP_pressure;BME280_temperature;BME280_humidity;BME280_pressure;Samples;Min_cycle;Max_cycle;Signal;HPM_P1;HPM_P2
2022/08/19 00:00:07;;;;;;;23.98;21.02;;;19.80;99.90;;;;;;5051362;28;20174;-71
2022/08/19 00:02:33;;;;;;;23.38;21.00;;;19.80;99.90;;;;;;5051255;28;20199;-71
2022/08/19 00:04:58;;;;;;;24.88;22.45;;;19.70;99.90;;;;;;5051395;28;20201;-71
2022/08/19 00:07:24;;;;;;;23.50;21.20;;;19.70;99.90;;;;;;5051064;28;20235;-71
2022/08/19 00:09:50;;;;;;;26.42;22.40;;;19.70;99.90;;;;;;5050930;28;20206;-71
2022/08/19 00:12:15;;;;;;;25.17;22.52;;;19.60;99.90;;;;;;5051307;28;20210;-71
2022/08/19 00:14:41;;;;;;;24.30;21.27;;;19.50;99.90;;;;;;5051794;28;20206;-71
2022/08/19 00:17:08;;;;;;;24.80;22.40;;;19.50;99.90;;;;;;5051185;28;20174;-71
2022/08/19 00:19:35;;;;;;;24.65;22.08;;;19.40;99.90;;;;;;5051120;28;20182;-71
2022/08/19 00:22:02;;;;;;;24.33;21.85;;;19.40;99.90;;;;;;5051975;28;20194;-71
2022/08/19 00:24:28;;;;;;;24.63;22.02;;;19.30;99.90;;;;;;5050822;28;20556;-71
2022/08/19 00:26:54;;;;;;;22.77;20.48;;;19.40;99.90;;;;;;5052242;28;20175;-71
2022/08/19 00:29:48;;;;;;;24.55;22.05;;;19.40;99.90;;;;;;5051884;28;20166;-71
2022/08/19 00:32:14;;;;;;;24.48;21.95;;;19.40;99.90;;;;;;5051222;28;20194;-71
2022/08/19 00:34:40;;;;;;;23.17;20.67;;;19.40;99.90;;;;;;5050598;28;20543;-71
2022/08/19 00:37:05;;;;;;;23.40;21.05;;;19.40;99.90;;;;;;5052078;28;20199;-71
2022/08/19 00:39:31;;;;;;;22.10;19.77;;;19.40;99.90;;;;;;5050443;28;20174;-71
2022/08/19 00:41:57;;;;;;;23.83;20.60;;;19.40;99.90;;;;;;5050372;28;20182;-71
2022/08/19 00:44:26;;;;;;;22.98;20.58;;;19.40;99.90;;;;;;5050759;28;20182;-71
2022/08/19 00:46:54;;;;;;;21.33;19.17;;;19.40;99.90;;;;;;5050271;28;20224;-71
2022/08/19 00:49:30;;;;;;;22.23;19.90;;;19.50;99.90;;;;;;5050215;28;20192;-71
2022/08/19 00:52:06;;;;;;;20.95;18.85;;;19.50;99.90;;;;;;5050276;28;20193;-71
2022/08/19 00:54:32;;;;;;;21.95;19.95;;;19.50;99.90;;;;;;5050201;28;20204;-71
2022/08/19 00:56:59;;;;;;;21.48;19.33;;;19.60;99.90;;;;;;5050288;28;20573;-71
2022/08/19 00:59:25;;;;;;;20.67;18.60;;;19.60;99.90;;;;;;5050530;28;20640;-71
2022/08/19 01:01:52;;;;;;;20.38;18.35;;;19.70;99.90;;;;;;5050634;28;20186;-71
2022/08/19 01:04:17;;;;;;;19.75;17.70;;;19.70;99.90;;;;;;5050369;28;20649;-71
2022/08/19 01:06:43;;;;;;;21.73;19.55;;;19.70;99.90;;;;;;5050304;28;20212;-71
2022/08/19 01:09:08;;;;;;;18.95;17.05;;;19.70;99.90;;;;;;5050956;28;20652;-71
2022/08/19 01:11:38;;;;;;;21.02;17.55;;;19.70;99.90;;;;;;5051552;28;20227;-71
2022/08/19 01:14:05;;;;;;;18.35;16.42;;;19.60;99.90;;;;;;5050148;28;20206;-71
2022/08/19 01:16:32;;;;;;;18.83;17.02;;;19.60;99.90;;;;;;5051430;28;20652;-71
2022/08/19 01:18:58;;;;;;;19.52;17.55;;;19.60;99.90;;;;;;5049942;28;20181;-71
2022/08/19 01:21:46;;;;;;;18.08;16.38;;;19.60;99.90;;;;;;5050099;28;20182;-71
2022/08/19 01:24:11;;;;;;;18.60;16.70;;;19.60;99.90;;;;;;5050551;28;20269;-71
2022/08/19 01:26:43;;;;;;;18.42;16.52;;;19.60;99.90;;;;;;5049867;28;20229;-71
2022/08/19 01:29:09;;;;;;;18.67;16.73;;;19.70;99.90;;;;;;5049613;28;20182;-71
2022/08/19 01:31:36;;;;;;;19.35;17.40;;;19.60;99.90;;;;;;5049676;28;20174;-71
2022/08/19 01:34:03;;;;;;;18.08;16.33;;;19.60;99.90;;;;;;5049536;28;20680;-71
2022/08/19 01:36:39;;;;;;;18.45;16.55;;;19.60;99.90;;;;;;5050185;28;20255;-71
2022/08/19 01:39:21;;;;;;;17.73;15.93;;;19.60;99.90;;;;;;5050886;28;20216;-71
2022/08/19 01:41:48;;;;;;;17.25;15.55;;;19.60;99.90;;;;;;5049606;28;20208;-71
2022/08/19 01:44:14;;;;;;;16.55;15.05;;;19.60;99.90;;;;;;5049514;28;20178;-71
2022/08/19 01:46:41;;;;;;;18.08;16.38;;;19.60;99.90;;;;;;5049466;28;20517;-71
2022/08/19 01:49:07;;;;;;;17.35;15.65;;;19.70;99.90;;;;;;5049745;28;20174;-71
2022/08/19 01:51:33;;;;;;;17.60;15.95;;;19.70;99.90;;;;;;5049819;28;20178;-71
2022/08/19 01:53:59;;;;;;;17.52;15.52;;;19.70;99.90;;;;;;5049560;28;20242;-71
2022/08/19 01:56:25;;;;;;;19.63;16.05;;;19.70;99.90;;;;;;5049372;28;20295;-71
2022/08/19 01:58:57;;;;;;;17.20;15.52;;;19.70;99.90;;;;;;5049393;28;20644;-71
2022/08/19 02:01:23;;;;;;;18.48;16.58;;;19.70;99.90;;;;;;5050797;28;20625;-71
2022/08/19 02:03:49;;;;;;;16.70;15.20;;;19.70;99.90;;;;;;5049368;28;20209;-71
2022/08/19 02:06:16;;;;;;;16.10;14.57;;;19.70;99.90;;;;;;5048979;28;20550;-71
2022/08/19 02:08:44;;;;;;;16.10;14.68;;;19.70;99.90;;;;;;5049422;28;20269;-71
2022/08/19 02:11:21;;;;;;;17.40;15.50;;;19.80;99.90;;;;;;5048933;28;20214;-71
2022/08/19 02:13:49;;;;;;;17.52;15.90;;;19.80;99.90;;;;;;5049170;28;20200;-71
2022/08/19 02:16:16;;;;;;;17.33;15.63;;;19.80;99.90;;;;;;5049951;28;20174;-71
2022/08/19 02:18:41;;;;;;;16.27;14.77;;;19.80;99.90;;;;;;5050579;28;20174;-71
2022/08/19 02:21:07;;;;;;;16.65;14.82;;;19.90;99.90;;;;;;5049065;28;20234;-71
2022/08/19 02:23:32;;;;;;;16.02;14.50;;;19.90;99.90;;;;;;5049307;28;20238;-71
2022/08/19 02:25:58;;;;;;;16.15;14.55;;;19.90;99.90;;;;;;5049780;28;20185;-71
2022/08/19 02:28:24;;;;;;;16.35;14.55;;;19.90;99.90;;;;;;5049219;28;20597;-71
2022/08/19 02:30:49;;;;;;;15.88;14.23;;;19.90;99.90;;;;;;5049669;28;20206;-71
2022/08/19 02:33:16;;;;;;;17.52;14.27;;;19.90;99.90;;;;;;5048882;28;20190;-71
2022/08/19 02:35:46;;;;;;;15.95;14.38;;;19.90;99.90;;;;;;5050086;28;20227;-71
2022/08/19 02:38:27;;;;;;;16.85;15.15;;;19.90;99.90;;;;;;5050810;28;20246;-71
2022/08/19 02:40:58;;;;;;;17.15;15.45;;;19.90;99.90;;;;;;5050010;28;20583;-71
2022/08/19 02:43:25;;;;;;;17.27;15.57;;;19.90;99.90;;;;;;5049588;28;20194;-71
2022/08/19 02:45:52;;;;;;;17.48;15.75;;;19.90;99.90;;;;;;5049082;28;20174;-71
2022/08/19 02:48:23;;;;;;;17.33;15.10;;;19.80;99.90;;;;;;5048715;28;20645;-71
2022/08/19 02:51:00;;;;;;;17.60;15.90;;;19.80;99.90;;;;;;5050125;28;20202;-71
2022/08/19 02:53:27;;;;;;;16.85;15.35;;;19.80;99.90;;;;;;5048666;28;20190;-71
2022/08/19 02:55:53;;;;;;;16.83;15.20;;;19.80;99.90;;;;;;5049030;28;20512;-71
2022/08/19 02:58:21;;;;;;;17.70;16.08;;;19.80;99.90;;;;;;5048607;28;20689;-71
2022/08/19 03:04:12;;;;;;;16.88;15.18;;;19.70;99.90;;;;;;5049789;28;20158;-71
2022/08/19 03:06:39;;;;;;;17.70;15.98;;;19.80;99.90;;;;;;5048728;28;20646;-71
2022/08/19 03:09:05;;;;;;;16.83;15.23;;;19.80;99.90;;;;;;5048508;28;20191;-71
2022/08/19 03:11:32;;;;;;;18.10;16.10;;;19.80;99.90;;;;;;5049473;28;20579;-71
2022/08/19 03:13:59;;;;;;;17.27;15.45;;;19.70;99.90;;;;;;5048396;28;20201;-71
2022/08/19 03:16:27;;;;;;;17.45;15.85;;;19.60;99.90;;;;;;5048637;28;20254;-71
2022/08/19 03:18:53;;;;;;;17.20;15.45;;;19.60;99.90;;;;;;5051545;28;20178;-71
2022/08/19 03:21:25;;;;;;;17.33;15.77;;;19.60;99.90;;;;;;5052946;28;20170;-71
2022/08/19 03:23:54;;;;;;;17.10;15.57;;;19.60;99.90;;;;;;5052534;28;20217;-71
2022/08/19 03:26:20;;;;;;;17.23;15.60;;;19.60;99.90;;;;;;5051706;28;20221;-71
2022/08/19 03:28:49;;;;;;;17.83;16.15;;;19.60;99.90;;;;;;5051950;28;20210;-71
2022/08/19 03:31:16;;;;;;;17.63;15.90;;;19.60;99.90;;;;;;5052372;28;20210;-71
2022/08/19 03:33:42;;;;;;;17.33;15.63;;;19.60;99.90;;;;;;5051550;28;20197;-71
2022/08/19 03:36:10;;;;;;;17.77;15.88;;;19.60;99.90;;;;;;5051862;28;20206;-71
2022/08/19 03:38:48;;;;;;;17.77;16.00;;;19.60;99.90;;;;;;5051448;28;20178;-71
2022/08/19 03:41:23;;;;;;;16.35;14.75;;;19.60;99.90;;;;;;5051499;28;20216;-71
2022/08/19 03:43:49;;;;;;;17.50;15.80;;;19.60;99.90;;;;;;5051920;28;20250;-71
2022/08/19 03:46:21;;;;;;;17.65;16.00;;;19.60;99.90;;;;;;5052549;28;20178;-71
2022/08/19 03:48:53;;;;;;;16.95;15.23;;;19.60;99.90;;;;;;5052214;28;20239;-71
2022/08/19 03:51:37;;;;;;;16.70;15.10;;;19.60;99.90;;;;;;5052078;28;20198;-71
2022/08/19 03:54:08;;;;;;;16.73;15.10;;;19.60;99.90;;;;;;5051541;28;20576;-71
2022/08/19 03:56:35;;;;;;;16.67;14.93;;;19.60;99.90;;;;;;5051098;28;20177;-71
2022/08/19 03:59:02;;;;;;;16.60;15.00;;;19.60;99.90;;;;;;5052841;28;20205;-71
2022/08/19 04:01:28;;;;;;;16.40;14.63;;;19.60;99.90;;;;;;5051213;28;20193;-71
2022/08/19 04:03:59;;;;;;;16.30;14.90;;;19.60;99.90;;;;;;5050971;28;20202;-71
2022/08/19 04:06:30;;;;;;;18.00;15.30;;;19.60;99.90;;;;;;5052009;28;20206;-71
2022/08/19 04:08:58;;;;;;;17.48;15.75;;;19.60;99.90;;;;;;5051141;28;20183;-71
2022/08/19 04:11:33;;;;;;;17.55;15.95;;;19.60;99.90;;;;;;5050841;28;20595;-71
2022/08/19 04:14:00;;;;;;;18.48;16.63;;;19.60;99.90;;;;;;5051257;28;20197;-71
2022/08/19 04:16:29;;;;;;;20.90;16.65;;;19.60;99.90;;;;;;5051228;28;20182;-71
2022/08/19 04:18:59;;;;;;;19.13;17.27;;;19.60;99.90;;;;;;5051365;28;20175;-71
2022/08/19 04:21:26;;;;;;;18.67;16.88;;;19.60;99.90;;;;;;5050836;28;20555;-71
2022/08/19 04:23:53;;;;;;;18.88;16.98;;;19.60;99.90;;;;;;5050746;28;20258;-71
2022/08/19 04:26:24;;;;;;;19.92;17.13;;;19.50;99.90;;;;;;5051936;28;20593;-71
2022/08/19 04:28:51;;;;;;;20.85;17.48;;;19.60;99.90;;;;;;5050684;28;20273;-71
2022/08/19 04:31:28;;;;;;;19.15;17.30;;;19.50;99.90;;;;;;5050872;28;20215;-71
2022/08/19 04:33:56;;;;;;;19.15;17.17;;;19.60;99.90;;;;;;5051851;28;20197;-71
2022/08/19 04:36:29;;;;;;;18.80;16.90;;;19.60;99.90;;;;;;5050765;28;20178;-71
2022/08/19 04:38:58;;;;;;;20.02;17.88;;;19.60;99.90;;;;;;5051442;28;20511;-71
2022/08/19 04:44:08;;;;;;;20.00;17.90;;;19.60;99.90;;;;;;5052313;28;20207;-71
2022/08/19 04:46:34;;;;;;;20.17;16.67;;;19.60;99.90;;;;;;5050392;28;20227;-71
2022/08/19 04:49:01;;;;;;;18.38;16.60;;;19.60;99.90;;;;;;5050432;28;20190;-71
2022/08/19 04:51:27;;;;;;;17.77;15.93;;;19.60;99.90;;;;;;5050368;28;20221;-71
2022/08/19 04:53:53;;;;;;;22.30;16.75;;;19.60;99.90;;;;;;5050774;28;20657;-71
2022/08/19 04:56:20;;;;;;;17.23;15.45;;;19.70;99.90;;;;;;5051424;28;20638;-71
2022/08/19 04:58:46;;;;;;;17.25;15.45;;;19.70;99.90;;;;;;5051098;28;20580;-71
2022/08/19 05:01:16;;;;;;;16.52;14.93;;;19.70;99.90;;;;;;5050100;28;20202;-71
2022/08/19 05:03:42;;;;;;;16.35;14.73;;;19.80;99.90;;;;;;5050443;28;20221;-71
2022/08/19 05:06:11;;;;;;;17.77;15.93;;;19.80;99.90;;;;;;5050112;28;20182;-71
2022/08/19 05:08:43;;;;;;;17.17;15.45;;;19.80;99.90;;;;;;5049943;28;20674;-71
2022/08/19 05:11:28;;;;;;;18.10;16.17;;;19.90;99.90;;;;;;5051309;28;20254;-71
2022/08/19 05:13:54;;;;;;;20.20;16.73;;;19.90;99.90;;;;;;5051146;28;20243;-71
2022/08/19 05:16:21;;;;;;;18.50;16.55;;;19.90;99.90;;;;;;5051203;28;20235;-71
2022/08/19 05:24:18;;;;;;;19.42;17.50;;;20.00;99.90;;;;;;5051401;28;20251;-71
2022/08/19 05:26:46;;;;;;;22.60;18.13;;;20.00;99.90;;;;;;5050679;28;20242;-71
2022/08/19 05:29:14;;;;;;;21.23;19.13;;;20.00;99.90;;;;;;5050202;28;20207;-71
2022/08/19 05:31:40;;;;;;;19.58;17.63;;;20.00;99.90;;;;;;5049743;28;20617;-71
2022/08/19 05:34:06;;;;;;;22.08;19.85;;;20.00;99.90;;;;;;5050004;28;20178;-71
2022/08/19 05:36:56;;;;;;;23.48;21.20;;;20.10;99.90;;;;;;5049696;28;20260;-75
2022/08/19 05:39:24;;;;;;;22.38;20.27;;;20.10;99.90;;;;;;5049550;28;20176;-71
2022/08/19 05:41:58;;;;;;;22.48;20.25;;;20.20;99.90;;;;;;5049582;28;20178;-71
2022/08/19 05:44:33;;;;;;;24.42;22.08;;;20.20;99.90;;;;;;5054278;28;20181;-71
2022/08/19 05:47:00;;;;;;;22.00;19.92;;;20.30;99.90;;;;;;5050618;28;20265;-71
2022/08/19 05:50:17;;;;;;;23.63;21.27;;;20.40;99.90;;;;;;5049830;28;20174;-71
2022/08/19 05:52:58;;;;;;;23.52;21.23;;;20.40;99.90;;;;;;5051189;28;20186;-71
2022/08/19 05:55:23;;;;;;;25.10;22.27;;;20.50;99.90;;;;;;5050560;28;20158;-71
2022/08/19 05:57:49;;;;;;;26.85;23.45;;;20.50;99.90;;;;;;5049616;28;20178;-71
2022/08/19 06:00:15;;;;;;;23.85;21.65;;;20.40;99.90;;;;;;5050582;28;20544;-71
2022/08/19 06:02:41;;;;;;;24.98;22.27;;;20.40;99.90;;;;;;5049393;28;20250;-71
2022/08/19 06:05:08;;;;;;;24.90;22.45;;;20.40;99.90;;;;;;5049541;28;20182;-71
2022/08/19 06:07:39;;;;;;;26.17;22.00;;;20.40;99.90;;;;;;5049244;28;20201;-71
2022/08/19 06:10:27;;;;;;;25.80;22.95;;;20.40;99.90;;;;;;5049073;28;20228;-71
2022/08/19 06:12:53;;;;;;;25.08;22.55;;;20.40;99.90;;;;;;5064244;28;20209;-71
2022/08/19 06:15:21;;;;;;;23.55;21.27;;;20.40;99.90;;;;;;5069396;27;20322;-71
2022/08/19 06:17:47;;;;;;;24.25;21.83;;;20.40;99.90;;;;;;5061219;27;20228;-71
2022/08/19 06:20:14;;;;;;;23.95;21.70;;;20.40;99.90;;;;;;5030643;28;20185;-71
2022/08/19 06:22:41;;;;;;;25.85;22.25;;;20.40;99.90;;;;;;5033524;28;20202;-71
2022/08/19 06:25:09;;;;;;;24.10;21.70;;;20.40;99.90;;;;;;5050601;28;20198;-71
2022/08/19 06:27:35;;;;;;;25.10;22.52;;;20.50;99.90;;;;;;5047524;28;20536;-71
2022/08/19 06:30:02;;;;;;;24.48;22.08;;;20.50;99.90;;;;;;5029088;28;20211;-71
2022/08/19 06:32:28;;;;;;;23.80;21.35;;;20.50;99.90;;;;;;5028963;28;20199;-71
2022/08/19 06:35:14;;;;;;;22.75;20.55;;;20.50;99.90;;;;;;5029100;28;20171;-71
2022/08/19 06:37:40;;;;;;;22.23;20.05;;;20.50;99.90;;;;;;5029859;28;20167;-71
2022/08/19 06:40:08;;;;;;;22.52;20.42;;;20.60;99.90;;;;;;5029259;28;20228;-71
2022/08/19 06:42:34;;;;;;;22.70;20.15;;;20.60;99.90;;;;;;5029127;28;20664;-77
2022/08/19 06:45:42;;;;;;;22.80;20.55;;;20.70;99.90;;;;;;5029739;28;20279;-73
2022/08/19 06:48:08;;;;;;;22.27;20.05;;;20.80;99.90;;;;;;5034059;28;20186;-71
2022/08/19 06:50:33;;;;;;;21.10;19.05;;;20.90;99.90;;;;;;5048856;28;20198;-71
2022/08/19 06:52:59;;;;;;;21.60;19.30;;;21.00;99.90;;;;;;5046875;28;20210;-71
2022/08/19 06:55:28;;;;;;;21.10;19.10;;;21.10;99.90;;;;;;5032517;28;20236;-71
2022/08/19 06:57:54;;;;;;;20.95;18.95;;;21.20;99.90;;;;;;5032368;28;20221;-71
2022/08/19 07:00:19;;;;;;;22.60;20.25;;;21.20;99.90;;;;;;5032812;28;20202;-71
2022/08/19 07:02:45;;;;;;;22.02;19.90;;;21.30;99.90;;;;;;5032653;28;20199;-71
2022/08/19 07:05:10;;;;;;;21.80;19.05;;;21.30;99.90;;;;;;5032442;28;20243;-71
2022/08/19 07:07:36;;;;;;;20.48;18.67;;;21.40;99.90;;;;;;5032147;28;20222;-71
2022/08/19 07:10:02;;;;;;;18.98;17.25;;;21.50;99.90;;;;;;5051832;28;20201;-71
2022/08/19 07:12:34;;;;;;;19.02;17.20;;;21.50;99.90;;;;;;5053213;28;20210;-71
2022/08/19 07:15:00;;;;;;;18.90;17.10;;;21.60;99.90;;;;;;5052084;28;20182;-71
2022/08/19 07:17:26;;;;;;;16.35;14.15;;;21.70;99.90;;;;;;5053147;28;20166;-71
2022/08/19 07:20:25;;;;;;;14.52;12.70;;;21.70;99.90;;;;;;5033917;28;20224;-71
2022/08/19 07:22:51;;;;;;;15.27;11.52;;;21.90;99.90;;;;;;5031906;28;20267;-71
2022/08/19 07:25:18;;;;;;;11.35;9.88;;;22.00;99.90;;;;;;5032138;28;20187;-71
2022/08/19 07:27:44;;;;;;;11.27;10.18;;;22.10;99.90;;;;;;5032874;28;20190;-71
2022/08/19 07:30:32;;;;;;;11.68;10.13;;;22.30;99.90;;;;;;5052630;28;20198;-71
2022/08/19 07:32:58;;;;;;;11.50;9.35;;;22.40;99.90;;;;;;5051942;28;20201;-71
2022/08/19 07:35:24;;;;;;;9.85;8.90;;;22.70;99.90;;;;;;5052790;28;20226;-71
2022/08/19 07:37:50;;;;;;;9.48;8.57;;;22.90;99.90;;;;;;5052332;28;20190;-71
2022/08/19 07:40:15;;;;;;;11.05;8.05;;;23.00;99.90;;;;;;5068435;28;20190;-71
2022/08/19 07:43:03;;;;;;;8.75;7.93;;;23.10;99.90;;;;;;5051537;28;20198;-71
2022/08/19 07:45:29;;;;;;;10.23;7.95;;;23.30;99.90;;;;;;5031603;28;20179;-71
2022/08/19 07:47:55;;;;;;;11.95;8.30;;;23.30;99.90;;;;;;5031645;28;20205;-71
2022/08/19 07:50:21;;;;;;;9.60;7.80;;;23.30;99.90;;;;;;5031280;28;20211;-71
2022/08/19 07:52:51;;;;;;;11.80;8.32;;;22.90;99.90;;;;;;5033150;28;20194;-72
2022/08/19 07:55:21;;;;;;;8.40;7.40;;;22.70;99.90;;;;;;5054094;28;20171;-73
2022/08/19 07:57:46;;;;;;;9.02;8.23;;;22.60;99.90;;;;;;5054161;28;20269;-72
2022/08/19 08:00:12;;;;;;;10.80;7.85;;;22.50;99.90;;;;;;5053175;28;20268;-72
2022/08/19 08:02:39;;;;;;;11.25;7.63;;;22.50;99.90;;;;;;5052262;28;20199;-72
2022/08/19 08:10:32;;;;;;;8.80;7.20;;;22.60;99.90;;;;;;5034083;28;20218;-72
2022/08/19 08:12:58;;;;;;;11.40;6.85;;;22.80;99.90;;;;;;5049681;28;20207;-72
2022/08/19 08:15:23;;;;;;;9.05;6.72;;;23.00;99.90;;;;;;5034329;28;20183;-73
2022/08/19 08:17:57;;;;;;;7.60;6.50;;;23.20;99.90;;;;;;5032838;28;20194;-73
2022/08/19 08:20:23;;;;;;;8.23;6.75;;;23.40;99.90;;;;;;5032909;28;20171;-73
2022/08/19 08:25:35;;;;;;;7.72;6.47;;;23.50;99.90;;;;;;5034046;28;20178;-72
2022/08/19 08:28:01;;;;;;;6.70;5.90;;;23.50;99.90;;;;;;5034223;28;20277;-72
2022/08/19 08:30:29;;;;;;;10.90;6.40;;;23.70;99.90;;;;;;5034000;28;20237;-73
2022/08/19 08:32:56;;;;;;;8.57;6.30;;;23.80;99.90;;;;;;5032586;28;20681;-73
2022/08/19 08:35:23;;;;;;;12.10;6.32;;;23.80;99.90;;;;;;5050220;28;20174;-73
2022/08/19 08:37:51;;;;;;;8.85;6.53;;;23.90;99.90;;;;;;5052610;28;20231;-73
2022/08/19 08:40:20;;;;;;;6.75;5.57;;;23.90;99.90;;;;;;5035304;28;20608;-73
2022/08/19 08:42:55;;;;;;;9.10;6.60;;;24.00;99.90;;;;;;5032506;28;20293;-72
2022/08/19 08:45:22;;;;;;;9.75;6.25;;;23.90;99.90;;;;;;5048260;28;20177;-72
2022/08/19 08:47:52;;;;;;;8.10;6.25;;;23.80;99.90;;;;;;5051830;28;20182;-73
2022/08/19 08:50:26;;;;;;;7.68;5.90;;;23.80;99.90;;;;;;5051109;28;20202;-73
2022/08/19 08:52:55;;;;;;;11.13;6.47;;;23.80;99.90;;;;;;5051535;28;20301;-72
2022/08/19 08:55:24;;;;;;;10.43;5.88;;;23.70;99.90;;;;;;5052402;28;20209;-73
2022/08/19 08:57:58;;;;;;;9.20;5.90;;;23.90;99.90;;;;;;5051262;28;20269;-73
2022/08/19 09:00:26;;;;;;;7.18;5.22;;;24.00;99.90;;;;;;5050774;28;20197;-73
2022/08/19 09:02:53;;;;;;;9.23;5.97;;;24.20;99.90;;;;;;5050763;28;20212;-73
2022/08/19 09:05:21;;;;;;;7.38;5.80;;;24.20;99.90;;;;;;5035326;28;20191;-73
2022/08/19 09:08:01;;;;;;;6.85;5.65;;;24.30;99.90;;;;;;5030422;28;20207;-73
2022/08/19 09:10:43;;;;;;;7.15;5.63;;;24.20;99.90;;;;;;5032323;28;20205;-73
2022/08/19 09:13:48;;;;;;;7.40;6.22;;;24.30;99.90;;;;;;5032035;28;20634;-73
2022/08/19 09:16:20;;;;;;;6.88;6.00;;;24.20;99.90;;;;;;5032827;28;20616;-73
2022/08/19 09:19:00;;;;;;;7.68;6.13;;;24.10;99.90;;;;;;5031463;28;20195;-72
2022/08/19 09:21:27;;;;;;;10.75;5.93;;;24.30;99.90;;;;;;5030713;28;20611;-72
2022/08/19 09:23:53;;;;;;;6.97;5.80;;;24.40;99.90;;;;;;5032519;28;20205;-73
2022/08/19 09:26:21;;;;;;;8.52;6.10;;;24.60;99.90;;;;;;5050280;28;20182;-72
2022/08/19 09:28:49;;;;;;;6.93;6.22;;;24.70;99.90;;;;;;5049858;28;20190;-72
2022/08/19 09:31:24;;;;;;;9.90;6.50;;;24.70;99.90;;;;;;5050814;28;20198;-73
2022/08/19 09:33:51;;;;;;;9.13;6.45;;;24.80;99.90;;;;;;5050153;28;20198;-73
2022/08/19 09:36:19;;;;;;;7.90;5.65;;;24.80;99.90;;;;;;5030311;28;20174;-73
2022/08/19 09:38:46;;;;;;;7.43;5.05;;;24.70;99.90;;;;;;5030868;28;20171;-73
2022/08/19 09:41:15;;;;;;;7.00;5.30;;;24.70;99.90;;;;;;5050764;28;20524;-73
2022/08/19 09:43:43;;;;;;;5.28;4.60;;;24.90;99.90;;;;;;5050241;28;20201;-73
2022/08/19 09:46:09;;;;;;;7.22;4.68;;;25.10;99.90;;;;;;5050852;28;20179;-73
2022/08/19 09:48:39;;;;;;;5.03;4.45;;;25.10;99.10;;;;;;5051890;28;20181;-72
2022/08/19 09:51:07;;;;;;;5.97;4.32;;;25.10;98.80;;;;;;5050648;28;20202;-73
2022/08/19 09:53:47;;;;;;;7.88;4.75;;;25.10;98.90;;;;;;5051135;28;20198;-73
2022/08/19 09:56:13;;;;;;;4.78;3.90;;;25.40;98.40;;;;;;5032030;28;20568;-72
2022/08/19 09:58:40;;;;;;;6.20;4.00;;;25.40;96.50;;;;;;5030785;28;20274;-72
2022/08/19 10:01:07;;;;;;;4.72;3.63;;;25.50;96.10;;;;;;5031842;28;20198;-72
2022/08/19 10:03:34;;;;;;;4.57;3.65;;;25.70;95.30;;;;;;5030110;28;20212;-73
2022/08/19 10:06:04;;;;;;;4.88;3.35;;;25.60;94.90;;;;;;5030837;28;20657;-73
2022/08/19 10:08:36;;;;;;;5.25;3.90;;;25.70;94.70;;;;;;5031144;28;20240;-72
2022/08/19 10:11:03;;;;;;;3.33;3.03;;;25.30;93.90;;;;;;5048007;28;20582;-72
2022/08/19 10:13:31;;;;;;;3.50;3.20;;;25.10;94.10;;;;;;5051466;28;20194;-72
2022/08/19 10:16:04;;;;;;;6.05;2.90;;;25.00;94.00;;;;;;5033642;28;20235;-72
2022/08/19 10:18:43;;;;;;;3.67;2.25;;;25.00;93.80;;;;;;5030556;28;20622;-73
2022/08/19 10:21:16;;;;;;;3.97;2.97;;;24.90;92.80;;;;;;5048450;28;20262;-72
2022/08/19 10:23:48;;;;;;;2.83;2.60;;;25.00;92.60;;;;;;5050257;28;20201;-72
2022/08/19 10:26:18;;;;;;;3.22;2.70;;;25.20;92.40;;;;;;5032835;28;20177;-72
2022/08/19 10:28:43;;;;;;;2.85;2.65;;;25.20;91.60;;;;;;5034174;28;20616;-72
2022/08/19 10:31:17;;;;;;;3.17;2.75;;;25.40;91.30;;;;;;5051649;28;20214;-72
2022/08/19 10:33:43;;;;;;;9.82;3.33;;;25.60;91.30;;;;;;5054174;28;20285;-72
2022/08/19 10:36:13;;;;;;;3.53;2.83;;;25.80;90.90;;;;;;5053557;28;20204;-72
2022/08/19 10:38:38;;;;;;;7.65;3.15;;;26.00;90.70;;;;;;5053592;28;20557;-73
2022/08/19 10:41:16;;;;;;;6.95;3.20;;;26.30;90.40;;;;;;5037035;28;20677;-73
2022/08/19 10:43:44;;;;;;;5.82;3.42;;;26.30;88.70;;;;;;5033458;28;20290;-73
2022/08/19 10:46:46;;;;;;;6.88;4.13;;;26.30;89.30;;;;;;5035671;28;20183;-72
2022/08/19 10:49:12;;;;;;;7.53;2.95;;;26.40;88.50;;;;;;5033719;28;20171;-73
2022/08/19 10:57:38;;;;;;;3.83;2.80;;;26.90;86.80;;;;;;5055362;28;20233;-72
2022/08/19 11:00:04;;;;;;;2.60;2.40;;;26.70;84.00;;;;;;5054002;28;20178;-73
2022/08/19 11:02:32;;;;;;;3.45;2.60;;;26.60;84.70;;;;;;5054560;28;20706;-73
2022/08/19 11:04:58;;;;;;;8.15;2.97;;;26.60;84.80;;;;;;5048227;28;20274;-73
2022/08/19 11:07:23;;;;;;;3.63;2.63;;;26.90;84.50;;;;;;5032816;28;20217;-73
2022/08/19 11:09:49;;;;;;;3.65;2.72;;;26.70;82.00;;;;;;5044598;28;20213;-73
2022/08/19 11:12:15;;;;;;;4.50;2.28;;;26.80;82.50;;;;;;5053084;28;20210;-73
2022/08/19 11:14:40;;;;;;;3.15;2.35;;;26.60;82.70;;;;;;5033149;28;20179;-73
2022/08/19 11:17:06;;;;;;;3.72;2.50;;;26.30;82.70;;;;;;5039660;28;20637;-73
2022/08/19 11:19:33;;;;;;;3.78;2.60;;;26.20;83.60;;;;;;5053926;28;20549;-73
2022/08/19 11:22:18;;;;;;;3.05;2.72;;;26.10;84.60;;;;;;5041136;28;20179;-73
2022/08/19 11:24:44;;;;;;;3.33;2.60;;;26.00;85.50;;;;;;5035108;28;20211;-73
2022/08/19 11:27:11;;;;;;;5.03;2.20;;;26.10;85.30;;;;;;5055778;28;20204;-73
2022/08/19 11:29:38;;;;;;;2.88;2.10;;;26.10;83.70;;;;;;5065144;28;20170;-72
2022/08/19 11:32:10;;;;;;;3.35;2.20;;;25.90;84.00;;;;;;5066091;28;20200;-73
2022/08/19 11:34:36;;;;;;;2.45;1.95;;;25.80;82.90;;;;;;5066143;28;20170;-72
2022/08/19 11:37:04;;;;;;;7.35;2.10;;;25.80;83.90;;;;;;5049357;28;20179;-72
2022/08/19 11:39:31;;;;;;;2.05;1.90;;;25.70;83.80;;;;;;5064990;28;20182;-73
2022/08/19 11:45:03;;;;;;;2.10;1.90;;;25.40;82.50;;;;;;5048145;28;20167;-73
2022/08/19 11:47:30;;;;;;;2.25;1.73;;;25.50;85.70;;;;;;5044624;28;20183;-73
2022/08/19 11:49:57;;;;;;;2.22;2.03;;;25.60;82.20;;;;;;5053952;28;20208;-72
2022/08/19 11:52:22;;;;;;;2.30;2.10;;;25.50;82.00;;;;;;5059838;28;20208;-72
2022/08/19 11:54:48;;;;;;;1.83;1.73;;;25.60;81.70;;;;;;5051584;28;20175;-72
2022/08/19 11:57:16;;;;;;;2.20;2.08;;;25.60;82.40;;;;;;5048557;27;20201;-72
2022/08/19 11:59:48;;;;;;;1.98;1.88;;;25.70;82.60;;;;;;5042692;28;20195;-72
2022/08/19 12:02:15;;;;;;;2.85;2.17;;;25.80;81.40;;;;;;5045511;28;20202;-72
2022/08/19 12:04:40;;;;;;;2.35;1.80;;;25.90;82.20;;;;;;5032117;28;20224;-72
2022/08/19 12:07:06;;;;;;;2.47;1.77;;;26.00;81.30;;;;;;5031367;28;20557;-72
2022/08/19 12:09:34;;;;;;;1.70;1.60;;;26.00;80.70;;;;;;5035594;28;20185;-72
2022/08/19 12:12:00;;;;;;;2.53;1.90;;;25.90;80.30;;;;;;5038581;28;20193;-72
2022/08/19 12:14:27;;;;;;;1.98;1.75;;;25.90;81.10;;;;;;5032409;28;20194;-72
2022/08/19 12:16:53;;;;;;;2.88;2.00;;;26.10;81.00;;;;;;5031503;28;20199;-72
2022/08/19 12:19:19;;;;;;;3.88;1.80;;;26.10;79.30;;;;;;5030963;28;20259;-72
2022/08/19 12:21:44;;;;;;;2.00;1.80;;;26.20;79.60;;;;;;5035034;28;20178;-72
2022/08/19 12:24:11;;;;;;;2.08;1.80;;;26.30;79.00;;;;;;5032189;28;20217;-72
2022/08/19 12:26:36;;;;;;;3.92;2.20;;;26.10;79.10;;;;;;5030486;28;20175;-72
2022/08/19 12:29:03;;;;;;;2.03;1.83;;;26.20;80.20;;;;;;5032129;28;20175;-72
2022/08/19 12:31:29;;;;;;;2.05;1.80;;;26.20;79.00;;;;;;5042336;28;20213;-72
2022/08/19 12:33:55;;;;;;;2.95;1.80;;;26.30;77.40;;;;;;5037052;28;20251;-72
2022/08/19 12:36:21;;;;;;;2.10;1.90;;;26.30;78.70;;;;;;5050542;28;20182;-72
2022/08/19 12:38:47;;;;;;;5.15;1.80;;;26.50;79.30;;;;;;5037213;28;20179;-72
2022/08/19 12:41:15;;;;;;;4.05;2.13;;;26.50;78.30;;;;;;5031466;28;20638;-74
2022/08/19 12:43:43;;;;;;;1.92;1.80;;;26.60;78.30;;;;;;5030888;28;20255;-72
2022/08/19 12:46:10;;;;;;;2.42;1.77;;;26.40;77.40;;;;;;5033940;28;20187;-72
2022/08/19 12:48:36;;;;;;;2.60;1.70;;;26.50;78.60;;;;;;5030539;28;20213;-72
2022/08/19 12:51:19;;;;;;;2.22;1.90;;;26.50;77.10;;;;;;5041916;28;20214;-72
2022/08/19 12:54:09;;;;;;;1.90;1.80;;;26.50;77.10;;;;;;5033697;28;20232;-72
2022/08/19 12:56:43;;;;;;;4.82;1.90;;;26.50;76.70;;;;;;5030776;28;20175;-72
2022/08/19 12:59:11;;;;;;;6.55;2.10;;;26.40;78.50;;;;;;5045457;28;20226;-72
2022/08/19 13:01:44;;;;;;;2.40;2.20;;;26.40;78.30;;;;;;5043261;28;20178;-72
2022/08/19 13:04:10;;;;;;;3.78;2.22;;;26.60;78.20;;;;;;5036243;28;20186;-72
2022/08/19 13:06:39;;;;;;;3.70;2.00;;;26.60;76.90;;;;;;5050254;28;20186;-72
2022/08/19 13:09:23;;;;;;;2.38;2.13;;;26.50;76.70;;;;;;5037317;28;20183;-72
2022/08/19 13:12:03;;;;;;;2.95;1.95;;;26.40;76.80;;;;;;5032880;28;20263;-72
2022/08/19 13:14:37;;;;;;;2.15;2.00;;;26.50;77.50;;;;;;5050409;28;20206;-72